Terminal Aerodrome Forecast
Issued by NWS Nashville, TN

Home | Current Version | Previous Version | Text Only | Print | Product List | Glossary On
Versions: 1 2 3 4 5 6 7 8 9 10 11 12 13 14 15 16 17 18 19 20 21 22 23 24 25 26 27 28
000
FTUS44 KOHX 012330
TAFCSV
TAF
KCSV 012330Z 0200/0224 21005KT 6SM BR BKN110
     FM020800 25004KT 6SM BR VCTS OVC030CB
     FM021000 23004KT 4SM -TSRA OVC015CB
     FM021300 23007KT 6SM -SHRA OVC020
     FM021600 22007KT P6SM BKN030
     FM022000 22007KT P6SM VCTS BKN030CB=

USA.gov is the U.S. government's official web portal to all federal, state and local government web resources and services.